sensor_id;sensor_type;location;lat;lon;timestamp;temperature;humidity
3994;DHT22;2011;48.238;13.948;2023-07-02T00:02:15;19.80;99.90
3994;DHT22;2011;48.238;13.948;2023-07-02T00:04:43;19.80;99.90
3994;DHT22;2011;48.238;13.948;2023-07-02T00:07:10;19.80;99.90
3994;DHT22;2011;48.238;13.948;2023-07-02T00:09:37;19.80;99.90
3994;DHT22;2011;48.238;13.948;2023-07-02T00:12:05;19.80;99.90
3994;DHT22;2011;48.238;13.948;2023-07-02T00:14:32;19.70;99.90
3994;DHT22;2011;48.238;13.948;2023-07-02T00:17:00;19.70;99.90
3994;DHT22;2011;48.238;13.948;2023-07-02T00:19:27;19.70;99.90
3994;DHT22;2011;48.238;13.948;2023-07-02T00:21:55;19.70;99.90
3994;DHT22;2011;48.238;13.948;2023-07-02T00:24:22;19.70;99.90
3994;DHT22;2011;48.238;13.948;2023-07-02T00:26:49;19.70;99.90
3994;DHT22;2011;48.238;13.948;2023-07-02T00:29:16;19.70;99.90
3994;DHT22;2011;48.238;13.948;2023-07-02T00:31:43;19.70;99.90
3994;DHT22;2011;48.238;13.948;2023-07-02T00:34:12;19.70;99.90
3994;DHT22;2011;48.238;13.948;2023-07-02T00:36:39;19.70;99.90
3994;DHT22;2011;48.238;13.948;2023-07-02T00:39:07;19.80;99.90
3994;DHT22;2011;48.238;13.948;2023-07-02T00:41:34;19.80;99.90
3994;DHT22;2011;48.238;13.948;2023-07-02T00:44:01;19.90;99.90
3994;DHT22;2011;48.238;13.948;2023-07-02T00:46:28;19.90;99.90
3994;DHT22;2011;48.238;13.948;2023-07-02T00:48:55;20.00;99.90
3994;DHT22;2011;48.238;13.948;2023-07-02T00:51:25;20.00;99.90
3994;DHT22;2011;48.238;13.948;2023-07-02T00:53:54;20.00;99.90
3994;DHT22;2011;48.238;13.948;2023-07-02T00:56:22;20.10;99.90
3994;DHT22;2011;48.238;13.948;2023-07-02T00:58:51;20.10;99.90
3994;DHT22;2011;48.238;13.948;2023-07-02T01:01:19;20.10;99.90
3994;DHT22;2011;48.238;13.948;2023-07-02T01:03:51;20.00;99.90
3994;DHT22;2011;48.238;13.948;2023-07-02T01:06:23;19.90;99.90
3994;DHT22;2011;48.238;13.948;2023-07-02T01:08:54;19.70;99.90
3994;DHT22;2011;48.238;13.948;2023-07-02T01:11:25;19.50;99.90
3994;DHT22;2011;48.238;13.948;2023-07-02T01:13:56;19.30;99.90
3994;DHT22;2011;48.238;13.948;2023-07-02T01:16:27;19.20;99.90
3994;DHT22;2011;48.238;13.948;2023-07-02T01:18:59;19.10;99.90
3994;DHT22;2011;48.238;13.948;2023-07-02T01:21:31;19.00;99.90
3994;DHT22;2011;48.238;13.948;2023-07-02T01:23:59;18.90;99.90
3994;DHT22;2011;48.238;13.948;2023-07-02T01:26:29;18.80;99.90
3994;DHT22;2011;48.238;13.948;2023-07-02T01:28:56;18.70;99.90
3994;DHT22;2011;48.238;13.948;2023-07-02T01:31:23;18.60;99.90
3994;DHT22;2011;48.238;13.948;2023-07-02T01:33:51;18.60;99.90
3994;DHT22;2011;48.238;13.948;2023-07-02T01:36:18;18.60;99.90
3994;DHT22;2011;48.238;13.948;2023-07-02T01:38:47;18.60;99.90
3994;DHT22;2011;48.238;13.948;2023-07-02T01:41:14;18.50;99.90
3994;DHT22;2011;48.238;13.948;2023-07-02T01:43:41;18.50;99.90
3994;DHT22;2011;48.238;13.948;2023-07-02T01:46:08;18.40;99.90
3994;DHT22;2011;48.238;13.948;2023-07-02T01:48:35;18.40;99.90
3994;DHT22;2011;48.238;13.948;2023-07-02T01:51:02;18.50;99.90
3994;DHT22;2011;48.238;13.948;2023-07-02T01:53:29;18.50;99.90
3994;DHT22;2011;48.238;13.948;2023-07-02T01:55:58;18.40;99.90
3994;DHT22;2011;48.238;13.948;2023-07-02T01:58:25;18.40;99.90
3994;DHT22;2011;48.238;13.948;2023-07-02T02:00:52;18.30;99.90
3994;DHT22;2011;48.238;13.948;2023-07-02T02:03:19;18.40;99.90
3994;DHT22;2011;48.238;13.948;2023-07-02T02:05:46;18.30;99.90
3994;DHT22;2011;48.238;13.948;2023-07-02T02:08:13;18.20;99.90
3994;DHT22;2011;48.238;13.948;2023-07-02T02:10:41;18.20;99.90
3994;DHT22;2011;48.238;13.948;2023-07-02T02:13:09;18.20;99.90
3994;DHT22;2011;48.238;13.948;2023-07-02T02:15:36;18.20;99.90
3994;DHT22;2011;48.238;13.948;2023-07-02T02:18:03;18.20;99.90
3994;DHT22;2011;48.238;13.948;2023-07-02T02:20:30;18.30;99.90
3994;DHT22;2011;48.238;13.948;2023-07-02T02:22:57;18.20;99.90
3994;DHT22;2011;48.238;13.948;2023-07-02T02:25:25;18.30;99.90
3994;DHT22;2011;48.238;13.948;2023-07-02T02:27:52;18.20;99.90
3994;DHT22;2011;48.238;13.948;2023-07-02T02:30:20;18.20;99.90
3994;DHT22;2011;48.238;13.948;2023-07-02T02:32:47;18.20;99.90
3994;DHT22;2011;48.238;13.948;2023-07-02T02:35:15;18.20;99.90
3994;DHT22;2011;48.238;13.948;2023-07-02T02:37:42;18.20;99.90
3994;DHT22;2011;48.238;13.948;2023-07-02T02:40:09;18.30;99.90
3994;DHT22;2011;48.238;13.948;2023-07-02T02:42:36;18.30;99.90
3994;DHT22;2011;48.238;13.948;2023-07-02T02:45:06;18.20;99.90
3994;DHT22;2011;48.238;13.948;2023-07-02T02:47:34;18.30;99.90
3994;DHT22;2011;48.238;13.948;2023-07-02T02:50:01;18.30;99.90
3994;DHT22;2011;48.238;13.948;2023-07-02T02:52:28;18.30;99.90
3994;DHT22;2011;48.238;13.948;2023-07-02T02:54:55;18.30;99.90
3994;DHT22;2011;48.238;13.948;2023-07-02T02:57:22;18.30;99.90
3994;DHT22;2011;48.238;13.948;2023-07-02T02:59:49;18.40;99.90
3994;DHT22;2011;48.238;13.948;2023-07-02T03:02:16;18.40;99.90
3994;DHT22;2011;48.238;13.948;2023-07-02T03:04:44;18.40;99.90
3994;DHT22;2011;48.238;13.948;2023-07-02T03:07:11;18.50;99.90
3994;DHT22;2011;48.238;13.948;2023-07-02T03:09:38;18.50;99.90
3994;DHT22;2011;48.238;13.948;2023-07-02T03:12:06;18.50;99.90
3994;DHT22;2011;48.238;13.948;2023-07-02T03:14:33;18.50;99.90
3994;DHT22;2011;48.238;13.948;2023-07-02T03:17:00;18.40;99.90
3994;DHT22;2011;48.238;13.948;2023-07-02T03:19:28;18.50;99.90
3994;DHT22;2011;48.238;13.948;2023-07-02T03:21:57;18.50;99.90
3994;DHT22;2011;48.238;13.948;2023-07-02T03:24:24;18.50;99.90
3994;DHT22;2011;48.238;13.948;2023-07-02T03:26:51;18.50;99.90
3994;DHT22;2011;48.238;13.948;2023-07-02T03:29:18;18.50;99.90
3994;DHT22;2011;48.238;13.948;2023-07-02T03:31:46;18.60;99.90
3994;DHT22;2011;48.238;13.948;2023-07-02T03:34:13;18.60;99.90
3994;DHT22;2011;48.238;13.948;2023-07-02T03:36:40;18.60;99.90
3994;DHT22;2011;48.238;13.948;2023-07-02T03:39:08;18.60;99.90
3994;DHT22;2011;48.238;13.948;2023-07-02T03:41:35;18.60;99.90
3994;DHT22;2011;48.238;13.948;2023-07-02T03:44:03;18.60;99.90
3994;DHT22;2011;48.238;13.948;2023-07-02T03:46:30;18.60;99.90
3994;DHT22;2011;48.238;13.948;2023-07-02T03:48:57;18.60;99.90
3994;DHT22;2011;48.238;13.948;2023-07-02T03:51:24;18.50;99.90
3994;DHT22;2011;48.238;13.948;2023-07-02T03:53:51;18.50;99.90
3994;DHT22;2011;48.238;13.948;2023-07-02T03:56:19;18.50;99.90
3994;DHT22;2011;48.238;13.948;2023-07-02T03:58:46;18.50;99.90
3994;DHT22;2011;48.238;13.948;2023-07-02T04:01:13;18.40;99.90
3994;DHT22;2011;48.238;13.948;2023-07-02T04:03:42;18.40;99.90
3994;DHT22;2011;48.238;13.948;2023-07-02T04:06:14;18.40;99.90
3994;DHT22;2011;48.238;13.948;2023-07-02T04:08:41;18.40;99.90
3994;DHT22;2011;48.238;13.948;2023-07-02T04:11:08;18.40;99.90
3994;DHT22;2011;48.238;13.948;2023-07-02T04:13:36;18.50;99.90
3994;DHT22;2011;48.238;13.948;2023-07-02T04:16:04;18.50;99.90
3994;DHT22;2011;48.238;13.948;2023-07-02T04:18:31;18.50;99.90
3994;DHT22;2011;48.238;13.948;2023-07-02T04:20:58;18.60;99.90
3994;DHT22;2011;48.238;13.948;2023-07-02T04:23:25;18.60;99.90
3994;DHT22;2011;48.238;13.948;2023-07-02T04:25:52;18.60;99.90
3994;DHT22;2011;48.238;13.948;2023-07-02T04:28:19;18.50;99.90
3994;DHT22;2011;48.238;13.948;2023-07-02T04:30:48;18.60;99.90
3994;DHT22;2011;48.238;13.948;2023-07-02T04:33:15;18.60;99.90
3994;DHT22;2011;48.238;13.948;2023-07-02T04:35:43;18.70;99.90
3994;DHT22;2011;48.238;13.948;2023-07-02T04:38:10;18.70;99.90
3994;DHT22;2011;48.238;13.948;2023-07-02T04:40:38;18.80;99.90
3994;DHT22;2011;48.238;13.948;2023-07-02T04:43:07;18.90;99.90
3994;DHT22;2011;48.238;13.948;2023-07-02T04:45:34;18.90;99.90
3994;DHT22;2011;48.238;13.948;2023-07-02T04:48:03;19.00;99.90
3994;DHT22;2011;48.238;13.948;2023-07-02T04:50:30;19.00;99.90
3994;DHT22;2011;48.238;13.948;2023-07-02T04:52:57;19.10;99.90
3994;DHT22;2011;48.238;13.948;2023-07-02T04:55:24;19.20;99.90
3994;DHT22;2011;48.238;13.948;2023-07-02T04:57:51;19.30;99.90
3994;DHT22;2011;48.238;13.948;2023-07-02T05:00:19;19.40;99.90
3994;DHT22;2011;48.238;13.948;2023-07-02T05:02:47;19.50;99.90
3994;DHT22;2011;48.238;13.948;2023-07-02T05:05:16;19.60;99.90
3994;DHT22;2011;48.238;13.948;2023-07-02T05:07:43;19.70;99.90
3994;DHT22;2011;48.238;13.948;2023-07-02T05:10:10;19.70;99.90
3994;DHT22;2011;48.238;13.948;2023-07-02T05:12:37;19.50;99.90
3994;DHT22;2011;48.238;13.948;2023-07-02T05:15:05;19.50;99.90
3994;DHT22;2011;48.238;13.948;2023-07-02T05:17:33;19.40;99.90
3994;DHT22;2011;48.238;13.948;2023-07-02T05:20:01;19.30;99.90
3994;DHT22;2011;48.238;13.948;2023-07-02T05:22:30;19.30;99.90
3994;DHT22;2011;48.238;13.948;2023-07-02T05:24:57;19.20;99.90
3994;DHT22;2011;48.238;13.948;2023-07-02T05:27:24;19.10;99.90
3994;DHT22;2011;48.238;13.948;2023-07-02T05:29:51;19.10;99.90
3994;DHT22;2011;48.238;13.948;2023-07-02T05:32:18;19.20;99.90
3994;DHT22;2011;48.238;13.948;2023-07-02T05:34:45;19.20;99.90
3994;DHT22;2011;48.238;13.948;2023-07-02T05:37:12;19.30;99.90
3994;DHT22;2011;48.238;13.948;2023-07-02T05:39:40;19.40;99.90
3994;DHT22;2011;48.238;13.948;2023-07-02T05:42:07;19.40;99.90
3994;DHT22;2011;48.238;13.948;2023-07-02T05:44:34;19.40;99.90
3994;DHT22;2011;48.238;13.948;2023-07-02T05:47:01;19.30;99.90
3994;DHT22;2011;48.238;13.948;2023-07-02T05:49:28;19.30;99.90
3994;DHT22;2011;48.238;13.948;2023-07-02T05:51:56;19.20;99.90
3994;DHT22;2011;48.238;13.948;2023-07-02T05:54:24;19.20;99.90
3994;DHT22;2011;48.238;13.948;2023-07-02T05:56:52;19.10;99.90
3994;DHT22;2011;48.238;13.948;2023-07-02T05:59:19;19.20;99.90
3994;DHT22;2011;48.238;13.948;2023-07-02T06:01:46;19.20;99.90
3994;DHT22;2011;48.238;13.948;2023-07-02T06:04:13;19.30;99.90
3994;DHT22;2011;48.238;13.948;2023-07-02T06:06:40;19.30;99.90
3994;DHT22;2011;48.238;13.948;2023-07-02T06:09:07;19.30;99.90
3994;DHT22;2011;48.238;13.948;2023-07-02T06:11:34;19.40;99.90
3994;DHT22;2011;48.238;13.948;2023-07-02T06:14:03;19.50;99.90
3994;DHT22;2011;48.238;13.948;2023-07-02T06:16:30;19.60;99.90
3994;DHT22;2011;48.238;13.948;2023-07-02T06:18:57;19.60;99.90
3994;DHT22;2011;48.238;13.948;2023-07-02T06:21:24;19.50;99.90
3994;DHT22;2011;48.238;13.948;2023-07-02T06:23:56;19.50;99.90
3994;DHT22;2011;48.238;13.948;2023-07-02T06:26:23;19.50;99.90
3994;DHT22;2011;48.238;13.948;2023-07-02T06:29:05;19.40;99.90
3994;DHT22;2011;48.238;13.948;2023-07-02T06:31:32;19.30;99.90
3994;DHT22;2011;48.238;13.948;2023-07-02T06:33:59;19.40;99.90
3994;DHT22;2011;48.238;13.948;2023-07-02T06:36:26;19.30;99.90
3994;DHT22;2011;48.238;13.948;2023-07-02T06:38:53;19.30;99.90
3994;DHT22;2011;48.238;13.948;2023-07-02T06:41:20;19.20;99.90
3994;DHT22;2011;48.238;13.948;2023-07-02T06:43:47;19.20;99.90
3994;DHT22;2011;48.238;13.948;2023-07-02T06:46:16;19.20;99.90
3994;DHT22;2011;48.238;13.948;2023-07-02T06:48:43;19.20;99.90
3994;DHT22;2011;48.238;13.948;2023-07-02T06:51:10;19.20;99.90
3994;DHT22;2011;48.238;13.948;2023-07-02T06:53:40;19.30;99.90
3994;DHT22;2011;48.238;13.948;2023-07-02T06:56:08;19.30;99.90
3994;DHT22;2011;48.238;13.948;2023-07-02T06:58:36;19.20;99.90
3994;DHT22;2011;48.238;13.948;2023-07-02T07:01:03;19.20;99.90
3994;DHT22;2011;48.238;13.948;2023-07-02T07:03:31;19.20;99.90
3994;DHT22;2011;48.238;13.948;2023-07-02T07:05:58;19.20;99.90
3994;DHT22;2011;48.238;13.948;2023-07-02T07:08:25;19.30;99.90
3994;DHT22;2011;48.238;13.948;2023-07-02T07:10:52;19.20;99.90
3994;DHT22;2011;48.238;13.948;2023-07-02T07:13:19;19.30;99.90
3994;DHT22;2011;48.238;13.948;2023-07-02T07:15:46;19.40;99.90
3994;DHT22;2011;48.238;13.948;2023-07-02T07:18:13;19.60;99.90
3994;DHT22;2011;48.238;13.948;2023-07-02T07:20:42;19.80;99.90
3994;DHT22;2011;48.238;13.948;2023-07-02T07:23:09;19.90;99.90
3994;DHT22;2011;48.238;13.948;2023-07-02T07:25:36;19.90;99.90
3994;DHT22;2011;48.238;13.948;2023-07-02T07:28:03;19.90;99.90
3994;DHT22;2011;48.238;13.948;2023-07-02T07:30:30;19.90;99.90
3994;DHT22;2011;48.238;13.948;2023-07-02T07:32:57;20.00;99.90
3994;DHT22;2011;48.238;13.948;2023-07-02T07:35:24;20.00;99.90
3994;DHT22;2011;48.238;13.948;2023-07-02T07:37:52;20.00;99.90
3994;DHT22;2011;48.238;13.948;2023-07-02T07:40:19;19.90;99.90
3994;DHT22;2011;48.238;13.948;2023-07-02T07:42:46;19.80;99.90
3994;DHT22;2011;48.238;13.948;2023-07-02T07:45:14;19.80;99.90
3994;DHT22;2011;48.238;13.948;2023-07-02T07:47:41;19.80;99.90
3994;DHT22;2011;48.238;13.948;2023-07-02T07:50:11;19.90;99.90
3994;DHT22;2011;48.238;13.948;2023-07-02T07:52:39;19.90;99.90
3994;DHT22;2011;48.238;13.948;2023-07-02T07:55:08;20.00;99.90
3994;DHT22;2011;48.238;13.948;2023-07-02T07:57:36;20.00;99.90
3994;DHT22;2011;48.238;13.948;2023-07-02T08:00:05;19.90;99.90
3994;DHT22;2011;48.238;13.948;2023-07-02T08:02:34;20.00;99.90
3994;DHT22;2011;48.238;13.948;2023-07-02T08:05:01;20.00;99.90
3994;DHT22;2011;48.238;13.948;2023-07-02T08:07:28;20.20;99.90
3994;DHT22;2011;48.238;13.948;2023-07-02T08:09:55;20.10;99.90
3994;DHT22;2011;48.238;13.948;2023-07-02T08:12:24;20.10;99.90
3994;DHT22;2011;48.238;13.948;2023-07-02T08:14:52;20.00;99.90
3994;DHT22;2011;48.238;13.948;2023-07-02T08:17:19;20.20;99.90
3994;DHT22;2011;48.238;13.948;2023-07-02T08:19:46;20.20;99.90
3994;DHT22;2011;48.238;13.948;2023-07-02T08:22:13;20.40;99.90
3994;DHT22;2011;48.238;13.948;2023-07-02T08:24:40;20.60;99.90
3994;DHT22;2011;48.238;13.948;2023-07-02T08:27:08;20.60;99.90
3994;DHT22;2011;48.238;13.948;2023-07-02T08:29:37;20.60;99.90
3994;DHT22;2011;48.238;13.948;2023-07-02T08:32:05;20.60;99.90
3994;DHT22;2011;48.238;13.948;2023-07-02T08:34:32;20.90;99.90
3994;DHT22;2011;48.238;13.948;2023-07-02T08:36:59;21.10;99.90
3994;DHT22;2011;48.238;13.948;2023-07-02T08:39:26;21.20;99.70
3994;DHT22;2011;48.238;13.948;2023-07-02T08:41:53;21.10;98.70
3994;DHT22;2011;48.238;13.948;2023-07-02T08:44:20;21.00;98.30
3994;DHT22;2011;48.238;13.948;2023-07-02T08:46:49;20.90;97.70
3994;DHT22;2011;48.238;13.948;2023-07-02T08:49:18;21.00;98.30
3994;DHT22;2011;48.238;13.948;2023-07-02T08:51:46;21.10;98.00
3994;DHT22;2011;48.238;13.948;2023-07-02T08:54:17;21.20;98.30
3994;DHT22;2011;48.238;13.948;2023-07-02T08:56:44;21.30;98.80
3994;DHT22;2011;48.238;13.948;2023-07-02T08:59:12;21.50;98.80
3994;DHT22;2011;48.238;13.948;2023-07-02T09:01:46;21.60;98.60
3994;DHT22;2011;48.238;13.948;2023-07-02T09:04:19;21.70;98.50
3994;DHT22;2011;48.238;13.948;2023-07-02T09:06:48;21.50;97.20
3994;DHT22;2011;48.238;13.948;2023-07-02T09:09:15;21.30;97.80
3994;DHT22;2011;48.238;13.948;2023-07-02T09:11:49;21.40;98.30
3994;DHT22;2011;48.238;13.948;2023-07-02T09:14:26;21.40;98.20
3994;DHT22;2011;48.238;13.948;2023-07-02T09:17:11;21.40;98.30
3994;DHT22;2011;48.238;13.948;2023-07-02T09:19:50;21.40;97.90
3994;DHT22;2011;48.238;13.948;2023-07-02T09:22:17;21.40;97.80
3994;DHT22;2011;48.238;13.948;2023-07-02T09:24:51;21.20;98.20
3994;DHT22;2011;48.238;13.948;2023-07-02T09:27:19;21.00;98.40
3994;DHT22;2011;48.238;13.948;2023-07-02T09:29:50;20.80;98.60
3994;DHT22;2011;48.238;13.948;2023-07-02T09:35:39;20.50;99.20
3994;DHT22;2011;48.238;13.948;2023-07-02T09:38:06;20.30;99.70
3994;DHT22;2011;48.238;13.948;2023-07-02T09:40:33;20.20;99.90
3994;DHT22;2011;48.238;13.948;2023-07-02T09:43:01;20.10;99.90
3994;DHT22;2011;48.238;13.948;2023-07-02T09:45:28;20.00;99.90
3994;DHT22;2011;48.238;13.948;2023-07-02T09:47:57;20.00;99.90
3994;DHT22;2011;48.238;13.948;2023-07-02T09:50:27;20.00;99.90
3994;DHT22;2011;48.238;13.948;2023-07-02T09:52:57;20.00;99.90
3994;DHT22;2011;48.238;13.948;2023-07-02T09:55:24;20.10;99.90
3994;DHT22;2011;48.238;13.948;2023-07-02T09:57:51;20.00;99.90
3994;DHT22;2011;48.238;13.948;2023-07-02T10:00:18;19.80;99.90
3994;DHT22;2011;48.238;13.948;2023-07-02T10:02:48;19.60;99.90
3994;DHT22;2011;48.238;13.948;2023-07-02T10:05:25;19.50;99.90
3994;DHT22;2011;48.238;13.948;2023-07-02T10:07:53;19.50;99.90
3994;DHT22;2011;48.238;13.948;2023-07-02T10:10:28;19.40;99.90
3994;DHT22;2011;48.238;13.948;2023-07-02T10:12:55;19.30;99.90
3994;DHT22;2011;48.238;13.948;2023-07-02T10:15:25;19.30;99.90
3994;DHT22;2011;48.238;13.948;2023-07-02T10:17:56;19.20;99.90
3994;DHT22;2011;48.238;13.948;2023-07-02T10:20:34;19.20;99.90
3994;DHT22;2011;48.238;13.948;2023-07-02T10:23:02;19.30;99.90
3994;DHT22;2011;48.238;13.948;2023-07-02T10:25:32;19.30;99.90
3994;DHT22;2011;48.238;13.948;2023-07-02T10:28:00;19.30;99.90
3994;DHT22;2011;48.238;13.948;2023-07-02T10:30:32;19.30;99.90
3994;DHT22;2011;48.238;13.948;2023-07-02T10:33:09;19.40;99.90
3994;DHT22;2011;48.238;13.948;2023-07-02T10:35:37;19.50;99.90
3994;DHT22;2011;48.238;13.948;2023-07-02T10:38:07;19.60;99.90
3994;DHT22;2011;48.238;13.948;2023-07-02T10:40:35;19.60;99.90
3994;DHT22;2011;48.238;13.948;2023-07-02T10:43:02;19.80;99.90
3994;DHT22;2011;48.238;13.948;2023-07-02T10:45:34;20.10;99.90
3994;DHT22;2011;48.238;13.948;2023-07-02T10:48:02;20.20;99.90
3994;DHT22;2011;48.238;13.948;2023-07-02T10:50:31;20.30;99.90
3994;DHT22;2011;48.238;13.948;2023-07-02T10:52:59;20.40;99.90
3994;DHT22;2011;48.238;13.948;2023-07-02T10:55:27;20.60;99.90
3994;DHT22;2011;48.238;13.948;2023-07-02T10:58:05;20.80;99.90
3994;DHT22;2011;48.238;13.948;2023-07-02T11:00:33;20.90;99.90
3994;DHT22;2011;48.238;13.948;2023-07-02T11:03:00;20.90;99.90
3994;DHT22;2011;48.238;13.948;2023-07-02T11:05:41;20.60;99.90
3994;DHT22;2011;48.238;13.948;2023-07-02T11:08:09;20.20;99.90
3994;DHT22;2011;48.238;13.948;2023-07-02T11:10:36;20.10;99.90
3994;DHT22;2011;48.238;13.948;2023-07-02T11:13:11;19.90;99.90
3994;DHT22;2011;48.238;13.948;2023-07-02T11:15:39;19.70;99.90
3994;DHT22;2011;48.238;13.948;2023-07-02T11:18:10;19.50;99.90
3994;DHT22;2011;48.238;13.948;2023-07-02T11:20:38;19.30;99.90
3994;DHT22;2011;48.238;13.948;2023-07-02T11:23:16;19.30;99.90
3994;DHT22;2011;48.238;13.948;2023-07-02T11:25:54;19.30;99.90
3994;DHT22;2011;48.238;13.948;2023-07-02T11:28:24;19.20;99.90
3994;DHT22;2011;48.238;13.948;2023-07-02T11:30:51;19.40;99.90
3994;DHT22;2011;48.238;13.948;2023-07-02T11:33:18;19.60;99.90
3994;DHT22;2011;48.238;13.948;2023-07-02T11:35:45;19.90;99.90
3994;DHT22;2011;48.238;13.948;2023-07-02T11:38:12;20.00;99.90
3994;DHT22;2011;48.238;13.948;2023-07-02T11:40:39;19.90;99.90
3994;DHT22;2011;48.238;13.948;2023-07-02T11:43:06;20.00;99.90
3994;DHT22;2011;48.238;13.948;2023-07-02T11:45:35;20.00;99.90
3994;DHT22;2011;48.238;13.948;2023-07-02T11:48:02;20.10;99.90
3994;DHT22;2011;48.238;13.948;2023-07-02T11:50:29;20.30;99.90
3994;DHT22;2011;48.238;13.948;2023-07-02T11:52:57;20.60;99.90
3994;DHT22;2011;48.238;13.948;2023-07-02T11:55:24;20.80;99.90
3994;DHT22;2011;48.238;13.948;2023-07-02T11:57:51;21.10;99.90
3994;DHT22;2011;48.238;13.948;2023-07-02T12:00:19;21.20;99.90
3994;DHT22;2011;48.238;13.948;2023-07-02T12:02:48;21.30;99.90
3994;DHT22;2011;48.238;13.948;2023-07-02T12:05:26;21.30;99.90
3994;DHT22;2011;48.238;13.948;2023-07-02T12:08:11;21.20;99.90
3994;DHT22;2011;48.238;13.948;2023-07-02T12:10:51;21.10;99.90
3994;DHT22;2011;48.238;13.948;2023-07-02T12:13:19;20.90;99.90
3994;DHT22;2011;48.238;13.948;2023-07-02T12:15:47;20.80;99.90
3994;DHT22;2011;48.238;13.948;2023-07-02T12:18:16;20.70;99.90
3994;DHT22;2011;48.238;13.948;2023-07-02T12:20:44;20.70;99.90
3994;DHT22;2011;48.238;13.948;2023-07-02T12:23:11;20.70;99.90
3994;DHT22;2011;48.238;13.948;2023-07-02T12:25:38;20.70;99.90
3994;DHT22;2011;48.238;13.948;2023-07-02T12:28:05;20.80;99.90
3994;DHT22;2011;48.238;13.948;2023-07-02T12:30:33;21.10;99.90
3994;DHT22;2011;48.238;13.948;2023-07-02T12:33:00;21.30;99.90
3994;DHT22;2011;48.238;13.948;2023-07-02T12:35:28;21.40;99.90
3994;DHT22;2011;48.238;13.948;2023-07-02T12:37:55;21.60;99.90
3994;DHT22;2011;48.238;13.948;2023-07-02T12:40:23;21.60;99.90
3994;DHT22;2011;48.238;13.948;2023-07-02T12:42:50;21.60;99.90
3994;DHT22;2011;48.238;13.948;2023-07-02T12:45:17;21.60;99.90
3994;DHT22;2011;48.238;13.948;2023-07-02T12:47:44;21.60;99.90
3994;DHT22;2011;48.238;13.948;2023-07-02T12:50:11;21.60;99.90
3994;DHT22;2011;48.238;13.948;2023-07-02T12:52:40;21.60;99.90
3994;DHT22;2011;48.238;13.948;2023-07-02T12:55:07;21.80;99.90
3994;DHT22;2011;48.238;13.948;2023-07-02T12:57:34;21.80;99.90
3994;DHT22;2011;48.238;13.948;2023-07-02T13:00:02;22.00;99.90
3994;DHT22;2011;48.238;13.948;2023-07-02T13:02:31;22.10;99.90
3994;DHT22;2011;48.238;13.948;2023-07-02T13:04:58;22.10;99.90
3994;DHT22;2011;48.238;13.948;2023-07-02T13:07:25;22.10;99.90
3994;DHT22;2011;48.238;13.948;2023-07-02T13:09:55;22.40;99.90
3994;DHT22;2011;48.238;13.948;2023-07-02T13:12:22;22.90;99.90
3994;DHT22;2011;48.238;13.948;2023-07-02T13:14:49;23.30;99.20
3994;DHT22;2011;48.238;13.948;2023-07-02T13:17:16;23.00;97.40
3994;DHT22;2011;48.238;13.948;2023-07-02T13:19:43;22.70;97.90
3994;DHT22;2011;48.238;13.948;2023-07-02T13:22:10;22.60;98.00
3994;DHT22;2011;48.238;13.948;2023-07-02T13:24:37;22.60;98.80
3994;DHT22;2011;48.238;13.948;2023-07-02T13:27:11;22.60;98.30
3994;DHT22;2011;48.238;13.948;2023-07-02T13:29:38;22.50;98.10
3994;DHT22;2011;48.238;13.948;2023-07-02T13:32:07;22.50;98.40
3994;DHT22;2011;48.238;13.948;2023-07-02T13:34:34;22.80;98.60
3994;DHT22;2011;48.238;13.948;2023-07-02T13:37:01;23.00;98.20
3994;DHT22;2011;48.238;13.948;2023-07-02T13:39:29;23.00;97.40
3994;DHT22;2011;48.238;13.948;2023-07-02T13:41:56;23.30;97.60
3994;DHT22;2011;48.238;13.948;2023-07-02T13:44:26;23.20;96.80
3994;DHT22;2011;48.238;13.948;2023-07-02T13:46:53;23.10;96.70
3994;DHT22;2011;48.238;13.948;2023-07-02T13:49:20;23.20;97.30
3994;DHT22;2011;48.238;13.948;2023-07-02T13:51:48;23.20;96.80
3994;DHT22;2011;48.238;13.948;2023-07-02T13:54:16;23.30;96.00
3994;DHT22;2011;48.238;13.948;2023-07-02T13:56:45;23.60;96.10
3994;DHT22;2011;48.238;13.948;2023-07-02T13:59:14;23.50;94.80
3994;DHT22;2011;48.238;13.948;2023-07-02T14:01:42;23.50;94.90
3994;DHT22;2011;48.238;13.948;2023-07-02T14:04:09;23.70;94.00
3994;DHT22;2011;48.238;13.948;2023-07-02T14:06:37;23.70;93.20
3994;DHT22;2011;48.238;13.948;2023-07-02T14:09:04;23.80;92.90
3994;DHT22;2011;48.238;13.948;2023-07-02T14:11:34;23.90;92.10
3994;DHT22;2011;48.238;13.948;2023-07-02T14:14:01;24.20;92.40
3994;DHT22;2011;48.238;13.948;2023-07-02T14:16:29;24.20;91.80
3994;DHT22;2011;48.238;13.948;2023-07-02T14:18:57;24.20;91.60
3994;DHT22;2011;48.238;13.948;2023-07-02T14:21:24;24.40;92.40
3994;DHT22;2011;48.238;13.948;2023-07-02T14:23:51;24.50;91.00
3994;DHT22;2011;48.238;13.948;2023-07-02T14:26:18;24.60;90.30
3994;DHT22;2011;48.238;13.948;2023-07-02T14:28:45;24.50;89.50
3994;DHT22;2011;48.238;13.948;2023-07-02T14:31:12;24.40;89.70
3994;DHT22;2011;48.238;13.948;2023-07-02T14:33:41;24.80;89.70
3994;DHT22;2011;48.238;13.948;2023-07-02T14:36:08;25.00;87.70
3994;DHT22;2011;48.238;13.948;2023-07-02T14:38:35;25.00;85.40
3994;DHT22;2011;48.238;13.948;2023-07-02T14:41:02;25.20;83.80
3994;DHT22;2011;48.238;13.948;2023-07-02T14:43:30;25.30;84.30
3994;DHT22;2011;48.238;13.948;2023-07-02T14:46:00;25.40;82.50
3994;DHT22;2011;48.238;13.948;2023-07-02T14:48:27;25.20;81.80
3994;DHT22;2011;48.238;13.948;2023-07-02T14:50:57;25.00;82.60
3994;DHT22;2011;48.238;13.948;2023-07-02T14:53:26;25.00;83.20
3994;DHT22;2011;48.238;13.948;2023-07-02T14:55:55;25.00;82.10
3994;DHT22;2011;48.238;13.948;2023-07-02T14:58:24;24.70;82.40
3994;DHT22;2011;48.238;13.948;2023-07-02T15:00:53;24.60;82.70
3994;DHT22;2011;48.238;13.948;2023-07-02T15:03:22;24.60;83.10
3994;DHT22;2011;48.238;13.948;2023-07-02T15:05:50;24.40;83.30
3994;DHT22;2011;48.238;13.948;2023-07-02T15:08:20;24.60;84.30
3994;DHT22;2011;48.238;13.948;2023-07-02T15:10:49;24.90;84.10
3994;DHT22;2011;48.238;13.948;2023-07-02T15:13:17;25.00;83.60
3994;DHT22;2011;48.238;13.948;2023-07-02T15:15:45;25.10;83.50
3994;DHT22;2011;48.238;13.948;2023-07-02T15:18:12;25.00;83.20
3994;DHT22;2011;48.238;13.948;2023-07-02T15:20:39;24.70;82.80
3994;DHT22;2011;48.238;13.948;2023-07-02T15:23:07;24.60;83.80
3994;DHT22;2011;48.238;13.948;2023-07-02T15:25:35;25.00;83.50
3994;DHT22;2011;48.238;13.948;2023-07-02T15:28:02;25.40;82.70
3994;DHT22;2011;48.238;13.948;2023-07-02T15:30:30;25.60;81.50
3994;DHT22;2011;48.238;13.948;2023-07-02T15:32:57;25.70;81.60
3994;DHT22;2011;48.238;13.948;2023-07-02T15:35:28;25.90;81.70
3994;DHT22;2011;48.238;13.948;2023-07-02T15:37:55;26.00;80.30
3994;DHT22;2011;48.238;13.948;2023-07-02T15:40:22;25.90;80.80
3994;DHT22;2011;48.238;13.948;2023-07-02T15:42:52;25.70;80.30
3994;DHT22;2011;48.238;13.948;2023-07-02T15:45:19;25.60;78.90
3994;DHT22;2011;48.238;13.948;2023-07-02T15:47:47;25.70;78.70
3994;DHT22;2011;48.238;13.948;2023-07-02T15:50:14;25.80;77.90
3994;DHT22;2011;48.238;13.948;2023-07-02T15:52:41;26.00;76.80
3994;DHT22;2011;48.238;13.948;2023-07-02T15:55:08;25.80;76.50